createdAt,value
2023-07-25T00:03:02.284Z,23.32
2023-07-25T00:06:07.765Z,23.42
2023-07-25T00:09:13.124Z,23.45
2023-07-25T00:12:18.424Z,23.51
2023-07-25T00:15:23.848Z,23.10
2023-07-25T00:18:29.194Z,23.54
2023-07-25T00:21:34.971Z,23.56
2023-07-25T00:24:41.044Z,23.46
2023-07-25T00:27:47.072Z,23.53
2023-07-25T00:30:52.582Z,23.56
2023-07-25T00:33:57.702Z,23.54
2023-07-25T00:37:03.176Z,23.58
2023-07-25T00:40:09.140Z,23.62
2023-07-25T00:43:15.016Z,23.63
2023-07-25T00:46:20.509Z,23.56
2023-07-25T00:49:25.796Z,23.44
2023-07-25T00:52:32.053Z,23.53
2023-07-25T00:55:37.760Z,23.70
2023-07-25T00:58:43.639Z,23.53
2023-07-25T01:01:49.169Z,23.31
2023-07-25T01:04:54.910Z,23.08
2023-07-25T01:08:00.846Z,23.09
2023-07-25T01:11:06.241Z,22.95
2023-07-25T01:14:11.990Z,22.96
2023-07-25T01:17:23.552Z,22.92
2023-07-25T01:20:30.090Z,22.98
2023-07-25T01:23:38.447Z,23.11
2023-07-25T01:26:43.543Z,22.89
2023-07-25T01:29:49.209Z,22.97
2023-07-25T01:32:55.791Z,22.84
2023-07-25T01:36:02.668Z,23.00
2023-07-25T01:39:09.181Z,22.72
2023-07-25T01:42:14.523Z,22.97
2023-07-25T01:45:20.125Z,23.02
2023-07-25T01:48:25.070Z,22.68
2023-07-25T01:51:30.399Z,22.89
2023-07-25T01:54:36.161Z,23.01
2023-07-25T01:57:41.736Z,22.89
2023-07-25T02:00:46.951Z,22.84
2023-07-25T02:03:52.273Z,22.92
2023-07-25T02:06:57.589Z,22.96
2023-07-25T02:10:03.424Z,22.97
2023-07-25T02:13:08.505Z,22.82
2023-07-25T02:16:13.967Z,22.83
2023-07-25T02:19:19.791Z,22.65
2023-07-25T02:22:25.559Z,22.59
2023-07-25T02:25:31.056Z,22.50
2023-07-25T02:28:36.228Z,22.30
2023-07-25T02:31:41.777Z,22.17
2023-07-25T02:34:47.386Z,22.38
2023-07-25T02:37:53.038Z,22.15
2023-07-25T02:40:58.737Z,22.37
2023-07-25T02:44:04.977Z,22.46
2023-07-25T02:47:10.612Z,22.50
2023-07-25T02:50:16.293Z,22.45
2023-07-25T02:53:22.055Z,22.70
2023-07-25T02:56:30.085Z,22.46
2023-07-25T02:59:35.490Z,22.36
2023-07-25T03:02:40.589Z,22.35
2023-07-25T03:05:45.782Z,22.15
2023-07-25T03:08:51.456Z,22.10
2023-07-25T03:11:56.598Z,22.10
2023-07-25T03:15:03.385Z,21.99
2023-07-25T03:18:08.996Z,22.10
2023-07-25T03:21:14.415Z,22.00
2023-07-25T03:24:19.889Z,22.34
2023-07-25T03:27:26.879Z,21.91
2023-07-25T03:30:32.765Z,21.99
2023-07-25T03:33:37.982Z,21.83
2023-07-25T03:36:43.020Z,21.99
2023-07-25T03:39:48.396Z,21.85
2023-07-25T03:42:54.206Z,20.51
2023-07-25T04:00:37.614Z,21.17
2023-07-25T04:04:00.450Z,20.84
2023-07-25T04:07:14.707Z,20.92
2023-07-25T04:10:24.900Z,20.82
2023-07-25T04:13:34.201Z,20.49
2023-07-25T04:16:45.265Z,20.12
2023-07-25T04:20:02.932Z,19.98
2023-07-25T04:28:58.991Z,20.55
2023-07-25T04:36:56.832Z,20.54
2023-07-25T04:40:20.716Z,20.75
2023-07-25T04:43:26.029Z,20.82
2023-07-25T04:46:49.555Z,21.07
2023-07-25T04:49:55.237Z,21.11
2023-07-25T04:53:19.125Z,21.01
2023-07-25T04:56:24.501Z,21.09
2023-07-25T04:59:48.345Z,21.03
2023-07-25T05:02:53.755Z,21.00
2023-07-25T05:06:17.188Z,21.37
2023-07-25T05:09:22.514Z,21.42
2023-07-25T05:12:46.254Z,21.34
2023-07-25T05:15:51.857Z,21.37
2023-07-25T05:19:15.972Z,21.54
2023-07-25T05:22:22.462Z,21.59
2023-07-25T05:25:46.135Z,21.61
2023-07-25T05:28:51.376Z,21.58
2023-07-25T05:32:15.125Z,21.71
2023-07-25T05:35:20.947Z,21.77
2023-07-25T05:38:44.909Z,21.69
2023-07-25T05:41:50.367Z,21.54
2023-07-25T05:45:14.088Z,21.46
2023-07-25T05:48:19.752Z,21.50
2023-07-25T05:51:43.351Z,21.63
2023-07-25T05:54:50.492Z,21.74
2023-07-25T05:58:13.985Z,21.60
2023-07-25T06:01:20.109Z,21.41
2023-07-25T06:04:47.393Z,21.59
2023-07-25T06:07:52.642Z,21.56
2023-07-25T06:11:17.135Z,21.28
2023-07-25T06:14:23.100Z,21.28
2023-07-25T06:17:46.497Z,21.51
2023-07-25T06:20:51.812Z,21.74
2023-07-25T06:24:15.509Z,21.51
2023-07-25T06:27:20.787Z,21.55
2023-07-25T06:30:44.668Z,21.44
2023-07-25T06:33:49.831Z,21.48
2023-07-25T06:37:16.738Z,21.65
2023-07-25T06:40:22.134Z,21.92
2023-07-25T06:43:46.029Z,22.16
2023-07-25T06:46:51.235Z,22.43
2023-07-25T06:50:15.437Z,22.19
2023-07-25T06:53:20.810Z,22.50
2023-07-25T06:56:44.546Z,22.56
2023-07-25T06:59:50.130Z,22.36
2023-07-25T07:03:14.647Z,22.81
2023-07-25T07:06:19.756Z,22.82
2023-07-25T07:09:44.185Z,22.87
2023-07-25T07:12:49.870Z,22.98
2023-07-25T07:16:13.990Z,22.83
2023-07-25T07:19:19.470Z,22.74
2023-07-25T07:22:43.200Z,22.63
2023-07-25T07:25:48.596Z,22.64
2023-07-25T07:29:13.540Z,22.54
2023-07-25T07:32:18.660Z,22.44
2023-07-25T07:35:42.828Z,22.26
2023-07-25T07:38:48.328Z,22.26
2023-07-25T07:41:54.100Z,22.24
2023-07-25T07:44:59.686Z,22.17
2023-07-25T07:48:05.005Z,22.09
2023-07-25T07:51:10.695Z,22.05
2023-07-25T07:54:15.467Z,22.10
2023-07-25T07:57:20.960Z,21.92
2023-07-25T08:00:26.212Z,21.92
2023-07-25T08:03:31.695Z,21.98
2023-07-25T08:06:36.907Z,21.80
2023-07-25T08:09:42.537Z,21.79
2023-07-25T08:12:47.724Z,21.76
2023-07-25T08:15:53.133Z,21.71
2023-07-25T08:18:58.446Z,21.76
2023-07-25T08:22:04.062Z,21.82
2023-07-25T08:25:10.934Z,21.59
2023-07-25T08:28:17.710Z,21.55
2023-07-25T08:31:23.043Z,21.69
2023-07-25T08:34:28.324Z,21.48
2023-07-25T08:37:33.901Z,21.36
2023-07-25T08:40:39.690Z,21.43
2023-07-25T08:43:45.604Z,21.33
2023-07-25T08:46:53.440Z,21.58
2023-07-25T08:50:00.997Z,21.72
2023-07-25T08:53:12.023Z,21.71
2023-07-25T08:56:17.660Z,21.83
2023-07-25T08:59:24.263Z,22.01
2023-07-25T09:02:29.565Z,22.26
2023-07-25T09:05:34.859Z,22.42
2023-07-25T09:08:40.772Z,22.85
2023-07-25T09:11:46.508Z,23.04
2023-07-25T09:14:53.153Z,22.84
2023-07-25T09:17:58.346Z,23.14
2023-07-25T09:21:04.581Z,23.26
2023-07-25T09:24:12.580Z,23.40
2023-07-25T09:27:18.445Z,23.37
2023-07-25T09:30:29.486Z,23.39
2023-07-25T09:33:34.826Z,23.62
2023-07-25T09:36:40.482Z,23.48
2023-07-25T09:39:46.005Z,23.89
2023-07-25T09:42:53.153Z,24.06
2023-07-25T09:46:15.658Z,23.82
2023-07-25T09:49:23.687Z,23.85
2023-07-25T09:52:29.592Z,23.83
2023-07-25T09:55:35.503Z,23.88
2023-07-25T09:58:50.845Z,24.02
2023-07-25T10:02:08.489Z,23.93
2023-07-25T10:05:15.993Z,23.96
2023-07-25T10:08:23.242Z,24.02
2023-07-25T10:11:30.206Z,24.24
2023-07-25T10:14:39.741Z,24.25
2023-07-25T10:17:45.702Z,24.43
2023-07-25T10:20:52.891Z,24.43
2023-07-25T10:24:04.652Z,24.12
2023-07-25T10:27:11.280Z,24.20
2023-07-25T10:30:28.576Z,24.55
2023-07-25T10:33:39.323Z,24.25
2023-07-25T10:36:44.513Z,24.31
2023-07-25T10:40:13.749Z,24.79
2023-07-25T10:43:19.215Z,24.77
2023-07-25T10:46:28.473Z,24.86
2023-07-25T10:49:56.963Z,25.05
2023-07-25T10:53:16.220Z,25.26
2023-07-25T10:56:21.663Z,25.08
2023-07-25T10:59:27.379Z,25.29
2023-07-25T11:02:45.112Z,25.43
2023-07-25T11:05:50.702Z,25.59
2023-07-25T11:08:56.440Z,25.57
2023-07-25T11:12:01.771Z,25.75
2023-07-25T11:15:07.557Z,25.84
2023-07-25T11:18:13.146Z,25.93
2023-07-25T11:21:18.984Z,25.95
2023-07-25T11:24:24.538Z,26.04
2023-07-25T11:27:30.656Z,26.05
2023-07-25T11:30:45.434Z,26.06
2023-07-25T11:33:50.843Z,26.19
2023-07-25T11:36:56.041Z,26.14
2023-07-25T11:40:13.645Z,25.94
2023-07-25T11:43:19.925Z,25.93
2023-07-25T11:46:26.360Z,26.04
2023-07-25T11:52:42.950Z,26.25
2023-07-25T11:55:52.187Z,26.23
2023-07-25T11:59:00.254Z,26.32
2023-07-25T12:02:09.835Z,26.30
2023-07-25T12:05:30.314Z,26.63
2023-07-25T12:08:43.143Z,26.92
2023-07-25T12:11:48.700Z,27.11
2023-07-25T12:14:59.291Z,27.23
2023-07-25T12:18:05.316Z,27.05
2023-07-25T12:21:24.996Z,26.86
2023-07-25T12:24:42.423Z,27.12
2023-07-25T12:27:49.874Z,27.10
2023-07-25T12:30:55.139Z,27.16
2023-07-25T12:34:00.666Z,27.36
2023-07-25T12:37:07.044Z,27.31
2023-07-25T12:40:12.932Z,27.30
2023-07-25T12:43:18.540Z,27.30
2023-07-25T12:46:24.600Z,27.36
2023-07-25T12:49:30.241Z,27.31
2023-07-25T12:52:35.661Z,27.27
2023-07-25T12:55:41.341Z,27.07
2023-07-25T12:58:47.009Z,27.09
2023-07-25T13:01:52.728Z,27.01
2023-07-25T13:04:58.220Z,27.34
2023-07-25T13:08:03.597Z,27.28
2023-07-25T13:11:08.725Z,27.26
2023-07-25T13:14:14.126Z,27.50
2023-07-25T13:17:19.689Z,27.83
2023-07-25T13:20:25.223Z,28.09
2023-07-25T13:23:30.409Z,28.08
2023-07-25T13:26:36.110Z,28.22
2023-07-25T13:29:41.144Z,27.74
2023-07-25T13:32:46.907Z,27.37
2023-07-25T13:35:52.758Z,27.77
2023-07-25T13:38:58.432Z,28.10
2023-07-25T13:42:04.353Z,28.17
2023-07-25T13:45:10.494Z,27.93
2023-07-25T13:48:15.661Z,27.82
2023-07-25T13:51:21.996Z,27.82
2023-07-25T13:54:27.886Z,27.79
2023-07-25T13:57:35.310Z,27.74
2023-07-25T14:00:42.562Z,27.77
2023-07-25T14:03:48.029Z,27.72
2023-07-25T14:06:53.332Z,27.60
2023-07-25T14:09:58.532Z,27.82
2023-07-25T14:13:03.442Z,28.14
2023-07-25T14:16:08.774Z,28.32
2023-07-25T14:19:14.310Z,28.17
2023-07-25T14:22:20.267Z,27.93
2023-07-25T14:25:27.082Z,27.89
2023-07-25T14:28:32.530Z,27.96
2023-07-25T14:31:38.064Z,27.87
2023-07-25T14:34:43.789Z,27.75
2023-07-25T14:37:56.943Z,27.92
2023-07-25T14:41:03.615Z,27.89
2023-07-25T14:44:09.449Z,27.94
2023-07-25T14:47:14.754Z,27.94
2023-07-25T14:50:20.424Z,27.80
2023-07-25T14:53:27.343Z,27.63
2023-07-25T14:56:34.176Z,27.62
2023-07-25T14:59:40.167Z,27.59
2023-07-25T15:02:46.072Z,27.65
2023-07-25T15:05:51.977Z,27.68
2023-07-25T15:08:57.371Z,27.73
2023-07-25T15:12:02.752Z,27.66
2023-07-25T15:15:08.787Z,27.80
2023-07-25T15:18:14.264Z,27.91
2023-07-25T15:21:19.931Z,27.93
2023-07-25T15:24:25.955Z,28.21
2023-07-25T15:27:31.695Z,28.56
2023-07-25T15:30:37.595Z,28.78
2023-07-25T15:33:42.992Z,28.67
2023-07-25T15:36:48.676Z,28.83
2023-07-25T15:39:54.540Z,28.96
2023-07-25T15:42:59.866Z,28.79
2023-07-25T15:46:05.535Z,28.63
2023-07-25T15:49:11.149Z,28.66
2023-07-25T15:52:16.702Z,28.66
2023-07-25T15:55:24.611Z,28.59
2023-07-25T15:58:30.563Z,28.45
2023-07-25T16:01:36.215Z,28.23
2023-07-25T16:04:41.637Z,28.20
2023-07-25T16:07:47.406Z,28.16
2023-07-25T16:10:52.532Z,28.32
2023-07-25T16:13:58.309Z,28.35
2023-07-25T16:17:04.990Z,28.41
2023-07-25T16:20:10.562Z,28.35
2023-07-25T16:23:16.297Z,28.12
2023-07-25T16:26:21.713Z,28.46
2023-07-25T16:29:26.892Z,28.42
2023-07-25T16:32:32.520Z,28.14
2023-07-25T16:35:37.768Z,27.83
2023-07-25T16:38:43.242Z,27.83
2023-07-25T16:41:48.940Z,27.76
2023-07-25T16:44:56.232Z,27.68
2023-07-25T16:48:04.803Z,27.72
2023-07-25T16:51:10.600Z,27.66
2023-07-25T16:54:18.104Z,27.65
2023-07-25T16:57:23.767Z,27.65
2023-07-25T17:00:30.078Z,27.60
2023-07-25T17:03:35.741Z,27.50
2023-07-25T17:06:41.512Z,27.26
2023-07-25T17:09:47.114Z,27.19
2023-07-25T17:12:52.573Z,27.14
2023-07-25T17:15:57.900Z,27.06
2023-07-25T17:19:02.835Z,27.12
2023-07-25T17:22:08.474Z,27.04
2023-07-25T17:25:14.285Z,27.21
2023-07-25T17:28:20.040Z,27.10
2023-07-25T17:31:26.580Z,27.06
2023-07-25T17:34:32.332Z,26.96
2023-07-25T17:37:41.663Z,26.96
2023-07-25T17:40:49.031Z,26.94
2023-07-25T17:43:54.652Z,26.98
2023-07-25T17:47:00.322Z,27.01
2023-07-25T17:50:06.192Z,27.07
2023-07-25T17:53:11.906Z,27.11
2023-07-25T17:56:18.109Z,27.18
2023-07-25T17:59:23.974Z,27.09
2023-07-25T18:02:29.347Z,27.06
2023-07-25T18:05:36.261Z,27.00
2023-07-25T18:08:42.106Z,26.94
2023-07-25T18:11:52.504Z,26.86
2023-07-25T18:14:59.119Z,26.90
2023-07-25T18:18:10.370Z,26.85
2023-07-25T18:21:16.436Z,26.81
2023-07-25T18:24:21.792Z,26.91
2023-07-25T18:27:27.997Z,26.82
2023-07-25T18:30:37.946Z,26.60
2023-07-25T18:33:43.558Z,26.53
2023-07-25T18:36:49.321Z,26.47
2023-07-25T18:39:54.479Z,26.44
2023-07-25T18:43:00.215Z,26.15
2023-07-25T18:46:05.682Z,26.23
2023-07-25T18:49:11.180Z,26.21
2023-07-25T18:52:17.612Z,26.08
2023-07-25T18:55:23.165Z,25.83
2023-07-25T18:58:30.014Z,25.94
2023-07-25T19:01:36.693Z,25.98
2023-07-25T19:04:43.544Z,25.87
2023-07-25T19:07:48.745Z,25.83
2023-07-25T19:10:54.622Z,25.76
2023-07-25T19:14:00.613Z,25.76
2023-07-25T19:17:10.317Z,25.67
2023-07-25T19:20:15.888Z,25.63
2023-07-25T19:23:26.494Z,25.41
2023-07-25T19:26:32.940Z,25.27
2023-07-25T19:29:39.009Z,25.26
2023-07-25T19:32:45.241Z,25.25
2023-07-25T19:35:55.952Z,25.23
2023-07-25T19:39:01.648Z,25.23
2023-07-25T19:42:07.254Z,25.15
2023-07-25T19:45:12.883Z,25.10
2023-07-25T19:48:18.501Z,24.83
2023-07-25T19:51:24.497Z,24.86
2023-07-25T19:54:31.820Z,24.65
2023-07-25T19:57:39.449Z,24.81
2023-07-25T20:00:45.029Z,24.88
2023-07-25T20:03:51.331Z,24.87
2023-07-25T20:06:57.192Z,24.82
2023-07-25T20:10:03.296Z,24.72
2023-07-25T20:13:09.021Z,24.54
2023-07-25T20:16:15.013Z,24.64
2023-07-25T20:19:24.329Z,24.57
2023-07-25T20:22:29.854Z,24.60
2023-07-25T20:25:35.983Z,24.54
2023-07-25T20:28:41.818Z,24.42
2023-07-25T20:31:47.652Z,24.38
2023-07-25T20:34:53.062Z,24.25
2023-07-25T20:37:59.089Z,24.28
2023-07-25T20:41:05.539Z,24.34
2023-07-25T20:44:11.267Z,24.05
2023-07-25T20:47:17.413Z,24.14
2023-07-25T20:50:23.767Z,24.09
2023-07-25T20:53:29.452Z,23.89
2023-07-25T20:56:35.363Z,23.93
2023-07-25T20:59:41.037Z,23.93
2023-07-25T21:02:50.460Z,23.86
2023-07-25T21:05:57.039Z,23.68
2023-07-25T21:09:02.344Z,23.83
2023-07-25T21:12:08.698Z,23.82
2023-07-25T21:15:16.450Z,23.86
2023-07-25T21:18:22.269Z,23.67
2023-07-25T21:21:28.097Z,23.52
2023-07-25T21:24:34.106Z,23.68
2023-07-25T21:27:39.904Z,23.37
2023-07-25T21:30:45.987Z,23.49
2023-07-25T21:33:51.503Z,23.55
2023-07-25T21:36:56.782Z,23.73
2023-07-25T21:40:02.190Z,23.86
2023-07-25T21:43:07.674Z,23.91
2023-07-25T21:46:13.622Z,23.92
2023-07-25T21:49:19.161Z,23.68
2023-07-25T21:52:25.077Z,22.85
2023-07-25T21:55:30.857Z,22.25
2023-07-25T21:58:36.249Z,22.22
2023-07-25T22:01:41.618Z,22.24
2023-07-25T22:04:47.211Z,21.71
2023-07-25T22:07:52.937Z,22.17
2023-07-25T22:10:58.636Z,22.30
2023-07-25T22:14:04.300Z,22.07
2023-07-25T22:17:09.494Z,21.97
2023-07-25T22:20:15.283Z,21.94
2023-07-25T22:23:22.068Z,21.85
2023-07-25T22:26:27.566Z,21.84
2023-07-25T22:29:33.444Z,21.82
2023-07-25T22:32:39.470Z,21.92
2023-07-25T22:35:45.139Z,21.96
2023-07-25T22:38:50.770Z,21.86
2023-07-25T22:41:56.421Z,21.71
2023-07-25T22:45:01.998Z,21.72
2023-07-25T22:48:08.054Z,21.56
2023-07-25T22:51:13.899Z,21.71
2023-07-25T22:54:19.747Z,21.99
2023-07-25T22:57:25.610Z,21.83
2023-07-25T23:00:31.331Z,21.79
2023-07-25T23:03:39.500Z,21.80
2023-07-25T23:06:45.075Z,21.77
2023-07-25T23:09:51.693Z,21.83
2023-07-25T23:12:57.667Z,21.68
2023-07-25T23:16:03.656Z,21.66
2023-07-25T23:19:09.406Z,21.80
2023-07-25T23:22:15.175Z,21.87
2023-07-25T23:25:22.607Z,21.75
2023-07-25T23:28:28.508Z,21.72
2023-07-25T23:31:34.597Z,21.68
2023-07-25T23:34:46.676Z,21.50
2023-07-25T23:37:58.535Z,20.93
2023-07-25T23:41:03.966Z,21.00
2023-07-25T23:44:10.506Z,21.08
2023-07-25T23:47:15.860Z,21.12
2023-07-25T23:50:21.727Z,21.19
2023-07-25T23:53:27.522Z,21.34
2023-07-25T23:56:33.088Z,21.44
2023-07-25T23:59:38.640Z,21.41
